createdAt,value
2023-04-19T00:01:16.478Z,11.78
2023-04-19T00:03:44.130Z,11.67
2023-04-19T00:06:14.462Z,11.53
2023-04-19T00:08:42.323Z,11.79
2023-04-19T00:11:10.146Z,11.82
2023-04-19T00:13:37.788Z,12.02
2023-04-19T00:16:05.407Z,11.57
2023-04-19T00:18:32.877Z,11.94
2023-04-19T00:21:00.757Z,11.94
2023-04-19T00:23:28.182Z,11.94
2023-04-19T00:25:55.575Z,12.09
2023-04-19T00:28:22.970Z,12.15
2023-04-19T00:30:50.418Z,11.86
2023-04-19T00:33:18.179Z,11.70
2023-04-19T00:35:45.992Z,11.64
2023-04-19T00:38:13.403Z,11.97
2023-04-19T00:40:40.851Z,11.75
2023-04-19T00:43:08.603Z,12.03
2023-04-19T00:45:36.254Z,11.91
2023-04-19T00:48:03.737Z,11.77
2023-04-19T00:50:31.610Z,11.49
2023-04-19T00:52:59.096Z,11.60
2023-04-19T00:55:26.601Z,11.67
2023-04-19T00:57:54.476Z,11.64
2023-04-19T01:00:22.014Z,11.64
2023-04-19T01:02:49.429Z,11.68
2023-04-19T01:05:17.303Z,11.06
2023-04-19T01:07:44.796Z,11.30
2023-04-19T01:10:12.291Z,11.20
2023-04-19T01:12:39.868Z,11.41
2023-04-19T01:15:07.636Z,11.54
2023-04-19T01:17:35.519Z,11.17
2023-04-19T01:20:03.913Z,11.38
2023-04-19T01:22:31.979Z,11.08
2023-04-19T01:24:59.644Z,10.97
2023-04-19T01:27:27.110Z,10.71
2023-04-19T01:29:54.566Z,10.94
2023-04-19T01:32:22.015Z,10.96
2023-04-19T01:34:50.226Z,10.92
2023-04-19T01:37:17.634Z,11.02
2023-04-19T01:39:45.055Z,11.01
2023-04-19T01:42:12.401Z,11.07
2023-04-19T01:44:39.799Z,10.96
2023-04-19T01:47:07.549Z,11.16
2023-04-19T01:49:35.056Z,11.08
2023-04-19T01:52:02.516Z,10.98
2023-04-19T01:54:29.890Z,11.06
2023-04-19T01:56:57.258Z,11.00
2023-04-19T01:59:24.723Z,11.24
2023-04-19T02:01:52.139Z,11.10
2023-04-19T02:04:21.070Z,11.37
2023-04-19T02:06:48.818Z,11.22
2023-04-19T02:09:16.304Z,11.22
2023-04-19T02:11:43.745Z,11.40
2023-04-19T02:14:11.385Z,11.35
2023-04-19T02:16:38.835Z,11.79
2023-04-19T02:19:06.250Z,11.67
2023-04-19T02:21:33.698Z,11.68
2023-04-19T02:24:01.200Z,11.59
2023-04-19T02:26:28.657Z,11.20
2023-04-19T02:28:56.040Z,11.28
2023-04-19T02:31:23.671Z,11.36
2023-04-19T02:33:51.091Z,11.70
2023-04-19T02:36:18.489Z,11.58
2023-04-19T02:38:45.982Z,11.60
2023-04-19T02:41:13.346Z,11.71
2023-04-19T02:43:40.785Z,11.51
2023-04-19T02:46:08.246Z,11.79
2023-04-19T02:48:35.660Z,11.69
2023-04-19T02:51:03.060Z,11.68
2023-04-19T02:53:30.394Z,11.74
2023-04-19T02:55:57.789Z,11.85
2023-04-19T02:58:26.534Z,11.51
2023-04-19T03:00:53.982Z,11.77
2023-04-19T03:03:21.683Z,11.86
2023-04-19T03:05:49.212Z,11.71
2023-04-19T03:08:16.634Z,11.57
2023-04-19T03:10:44.060Z,11.89
2023-04-19T03:13:11.466Z,12.01
2023-04-19T03:15:38.928Z,11.92
2023-04-19T03:18:06.374Z,11.75
2023-04-19T03:20:34.387Z,11.53
2023-04-19T03:23:02.384Z,11.79
2023-04-19T03:25:29.807Z,11.82
2023-04-19T03:27:57.573Z,11.96
2023-04-19T03:30:24.907Z,12.00
2023-04-19T03:32:52.923Z,12.11
2023-04-19T03:35:20.607Z,11.95
2023-04-19T03:37:48.029Z,11.98
2023-04-19T03:40:15.447Z,12.06
2023-04-19T03:42:42.838Z,11.72
2023-04-19T03:45:10.586Z,12.26
2023-04-19T03:47:37.990Z,12.03
2023-04-19T03:50:05.621Z,12.12
2023-04-19T03:52:33.020Z,12.10
2023-04-19T03:55:00.607Z,11.98
2023-04-19T03:57:28.003Z,12.05
2023-04-19T03:59:55.404Z,11.99
2023-04-19T04:02:22.995Z,11.87
2023-04-19T04:04:56.928Z,11.95
2023-04-19T04:07:24.640Z,11.94
2023-04-19T04:09:52.100Z,11.95
2023-04-19T04:12:19.570Z,12.03
2023-04-19T04:14:46.914Z,11.84
2023-04-19T04:17:14.280Z,12.06
2023-04-19T04:19:41.638Z,11.58
2023-04-19T04:22:09.007Z,11.65
2023-04-19T04:24:43.029Z,11.61
2023-04-19T04:27:11.039Z,11.52
2023-04-19T04:29:39.083Z,11.70
2023-04-19T04:32:08.335Z,11.59
2023-04-19T04:34:36.666Z,11.67
2023-04-19T04:37:04.780Z,11.63
2023-04-19T04:39:35.130Z,11.72
2023-04-19T04:42:02.629Z,11.58
2023-04-19T04:44:29.966Z,11.54
2023-04-19T04:46:57.326Z,11.84
2023-04-19T04:49:24.742Z,11.46
2023-04-19T04:51:52.130Z,11.58
2023-04-19T04:54:19.545Z,11.62
2023-04-19T04:56:47.034Z,11.22
2023-04-19T04:59:14.521Z,11.60
2023-04-19T05:01:42.081Z,11.22
2023-04-19T05:04:09.627Z,11.38
2023-04-19T05:06:37.085Z,11.26
2023-04-19T05:09:04.599Z,11.12
2023-04-19T05:11:32.113Z,11.39
2023-04-19T05:13:59.584Z,11.32
2023-04-19T05:16:27.571Z,11.24
2023-04-19T05:18:55.080Z,11.33
2023-04-19T05:21:22.767Z,11.18
2023-04-19T05:23:50.166Z,11.12
2023-04-19T05:26:17.574Z,11.10
2023-04-19T05:28:45.697Z,11.34
2023-04-19T05:31:13.513Z,10.99
2023-04-19T05:33:41.013Z,11.03
2023-04-19T05:36:08.781Z,11.30
2023-04-19T05:38:36.426Z,11.28
2023-04-19T05:41:04.436Z,11.45
2023-04-19T05:43:31.995Z,11.33
2023-04-19T05:45:59.492Z,11.15
2023-04-19T05:48:26.942Z,11.56
2023-04-19T05:50:56.591Z,11.10
2023-04-19T05:53:24.014Z,11.29
2023-04-19T05:55:52.218Z,11.17
2023-04-19T05:58:19.714Z,11.21
2023-04-19T06:00:48.922Z,11.47
2023-04-19T06:03:16.596Z,11.47
2023-04-19T06:05:44.140Z,11.80
2023-04-19T06:08:12.090Z,11.96
2023-04-19T06:10:52.550Z,11.74
2023-04-19T06:13:21.881Z,11.51
2023-04-19T06:15:49.851Z,11.43
2023-04-19T06:18:18.846Z,11.46
2023-04-19T06:20:46.711Z,11.20
2023-04-19T06:23:14.813Z,11.04
2023-04-19T06:25:42.653Z,11.53
2023-04-19T06:28:10.905Z,11.46
2023-04-19T06:30:38.331Z,11.71
2023-04-19T06:33:05.676Z,11.93
2023-04-19T06:35:33.373Z,11.70
2023-04-19T06:38:00.777Z,11.74
2023-04-19T06:40:29.060Z,11.94
2023-04-19T06:42:56.705Z,11.99
2023-04-19T06:45:24.210Z,11.88
2023-04-19T06:47:51.706Z,12.02
2023-04-19T06:50:19.330Z,12.17
2023-04-19T06:52:46.760Z,12.63
2023-04-19T06:55:14.241Z,12.42
2023-04-19T06:57:42.527Z,12.59
2023-04-19T07:00:11.359Z,12.80
2023-04-19T07:02:38.917Z,12.33
2023-04-19T07:05:06.689Z,12.24
2023-04-19T07:07:34.427Z,13.20
2023-04-19T07:10:01.795Z,12.59
2023-04-19T07:12:29.239Z,13.04
2023-04-19T07:14:57.302Z,13.21
2023-04-19T07:17:24.895Z,13.42
2023-04-19T07:19:52.441Z,13.07
2023-04-19T07:22:19.873Z,13.37
2023-04-19T07:24:47.302Z,13.50
2023-04-19T07:27:16.475Z,13.25
2023-04-19T07:29:43.902Z,13.04
2023-04-19T07:32:11.641Z,13.39
2023-04-19T07:34:39.207Z,13.53
2023-04-19T07:37:06.877Z,13.30
2023-04-19T07:39:34.528Z,13.21
2023-04-19T07:42:02.054Z,13.79
2023-04-19T07:44:29.447Z,13.26
2023-04-19T07:46:56.891Z,13.84
2023-04-19T07:49:24.382Z,13.98
2023-04-19T07:51:51.767Z,13.44
2023-04-19T07:54:20.193Z,13.85
2023-04-19T07:56:47.661Z,13.31
2023-04-19T07:59:15.049Z,13.50
2023-04-19T08:01:43.039Z,12.60
2023-04-19T08:04:10.973Z,12.86
2023-04-19T08:06:39.771Z,12.68
2023-04-19T08:09:07.205Z,12.95
2023-04-19T08:11:34.779Z,13.48
2023-04-19T08:14:12.070Z,13.38
2023-04-19T08:19:16.855Z,13.43
2023-04-19T08:21:44.326Z,13.23
2023-04-19T08:24:11.769Z,13.43
2023-04-19T08:26:40.236Z,13.51
2023-04-19T08:29:07.772Z,12.91
2023-04-19T08:31:35.331Z,13.80
2023-04-19T08:34:02.856Z,13.99
2023-04-19T08:36:39.012Z,13.58
2023-04-19T08:39:17.607Z,13.76
2023-04-19T08:41:59.056Z,14.09
2023-04-19T08:44:36.721Z,14.38
2023-04-19T08:47:06.959Z,14.44
2023-04-19T08:49:39.958Z,14.77
2023-04-19T08:52:10.098Z,14.49
2023-04-19T08:54:37.720Z,15.12
2023-04-19T08:57:06.195Z,15.27
2023-04-19T08:59:33.865Z,15.32
2023-04-19T09:02:04.636Z,14.91
2023-04-19T09:04:37.160Z,14.80
2023-04-19T09:07:05.150Z,14.98
2023-04-19T09:09:39.194Z,15.16
2023-04-19T09:12:18.251Z,15.76
2023-04-19T09:14:59.743Z,14.84
2023-04-19T09:17:28.405Z,15.36
2023-04-19T09:19:55.912Z,14.99
2023-04-19T09:22:23.566Z,14.99
2023-04-19T09:27:27.275Z,14.93
2023-04-19T09:29:55.663Z,14.95
2023-04-19T09:32:23.623Z,15.15
2023-04-19T09:34:56.044Z,14.88
2023-04-19T09:37:50.951Z,14.98
2023-04-19T09:40:24.626Z,14.88
2023-04-19T09:43:05.304Z,14.83
2023-04-19T09:45:43.177Z,15.30
2023-04-19T09:48:11.097Z,15.45
2023-04-19T09:50:57.464Z,15.35
2023-04-19T09:53:28.839Z,16.16
2023-04-19T09:56:01.371Z,15.44
2023-04-19T09:58:38.087Z,15.92
2023-04-19T10:01:16.213Z,15.79
2023-04-19T10:03:46.432Z,15.79
2023-04-19T10:06:40.111Z,15.72
2023-04-19T10:09:04.757Z,16.04
2023-04-19T10:11:40.107Z,15.88
2023-04-19T10:14:12.158Z,16.09
2023-04-19T10:16:40.059Z,16.26
2023-04-19T10:19:12.208Z,16.68
2023-04-19T10:21:40.834Z,16.52
2023-04-19T10:24:09.483Z,16.46
2023-04-19T10:26:55.726Z,16.28
2023-04-19T10:29:58.799Z,16.29
2023-04-19T10:32:30.082Z,16.07
2023-04-19T10:35:02.721Z,14.83
2023-04-19T10:37:31.353Z,16.83
2023-04-19T10:39:58.866Z,16.44
2023-04-19T10:42:26.315Z,17.03
2023-04-19T10:45:12.306Z,17.26
2023-04-19T10:47:45.087Z,17.87
2023-04-19T10:50:12.621Z,17.20
2023-04-19T10:52:40.072Z,17.41
2023-04-19T10:55:07.681Z,17.20
2023-04-19T10:57:53.754Z,17.58
2023-04-19T11:00:21.882Z,18.17
2023-04-19T11:02:49.319Z,16.66
2023-04-19T11:05:18.449Z,16.58
2023-04-19T11:07:47.211Z,17.74
2023-04-19T11:10:14.599Z,17.30
2023-04-19T11:12:45.879Z,17.67
2023-04-19T11:15:13.364Z,17.97
2023-04-19T11:17:42.455Z,17.98
2023-04-19T11:20:10.911Z,17.62
2023-04-19T11:22:40.819Z,18.25
2023-04-19T11:25:19.431Z,18.33
2023-04-19T11:27:52.203Z,17.78
2023-04-19T11:30:24.163Z,18.67
2023-04-19T11:32:53.365Z,16.56
2023-04-19T11:35:21.786Z,17.66
2023-04-19T11:37:49.376Z,17.79
2023-04-19T11:40:18.163Z,17.77
2023-04-19T11:42:46.125Z,18.50
2023-04-19T11:45:25.968Z,17.67
2023-04-19T11:47:54.028Z,18.00
2023-04-19T11:50:53.976Z,17.73
2023-04-19T11:53:22.564Z,17.04
2023-04-19T11:55:51.392Z,17.29
2023-04-19T11:58:25.597Z,17.58
2023-04-19T12:00:53.173Z,17.89
2023-04-19T12:03:26.536Z,17.87
2023-04-19T12:05:58.315Z,17.93
2023-04-19T12:08:55.513Z,17.91
2023-04-19T12:11:24.437Z,18.30
2023-04-19T12:14:11.203Z,18.25
2023-04-19T12:16:39.007Z,18.52
2023-04-19T12:19:20.441Z,18.68
2023-04-19T12:21:48.604Z,18.52
2023-04-19T12:24:16.779Z,18.11
2023-04-19T12:26:55.845Z,18.39
2023-04-19T12:29:23.813Z,17.85
2023-04-19T12:31:51.228Z,17.44
2023-04-19T12:34:18.762Z,17.79
2023-04-19T12:36:46.142Z,18.70
2023-04-19T12:39:13.671Z,19.33
2023-04-19T12:41:41.251Z,19.25
2023-04-19T12:44:08.650Z,18.73
2023-04-19T12:46:36.699Z,19.10
2023-04-19T12:49:04.136Z,19.07
2023-04-19T12:51:31.781Z,18.66
2023-04-19T12:53:59.765Z,17.99
2023-04-19T12:56:27.213Z,18.17
2023-04-19T12:58:54.589Z,17.58
2023-04-19T13:01:22.054Z,18.31
2023-04-19T13:03:49.781Z,18.38
2023-04-19T13:06:17.692Z,18.88
2023-04-19T13:08:47.423Z,17.80
2023-04-19T13:11:16.054Z,18.44
2023-04-19T13:13:43.709Z,18.34
2023-04-19T13:16:11.519Z,19.33
2023-04-19T13:18:39.144Z,19.57
2023-04-19T13:21:08.515Z,18.90
2023-04-19T13:23:39.731Z,19.17
2023-04-19T13:26:07.519Z,17.98
2023-04-19T13:28:36.645Z,18.25
2023-04-19T13:31:04.936Z,18.93
2023-04-19T13:33:32.376Z,18.96
2023-04-19T13:35:59.779Z,18.64
2023-04-19T13:38:27.353Z,18.49
2023-04-19T13:40:54.740Z,18.38
2023-04-19T13:43:22.216Z,17.91
2023-04-19T13:45:49.652Z,17.34
2023-04-19T13:48:17.271Z,17.64
2023-04-19T13:50:44.767Z,18.80
2023-04-19T13:53:12.300Z,18.18
2023-04-19T13:55:39.660Z,17.88
2023-04-19T13:58:07.016Z,17.80
2023-04-19T14:00:34.900Z,17.88
2023-04-19T14:03:02.694Z,17.15
2023-04-19T14:05:30.230Z,17.02
2023-04-19T14:07:57.727Z,16.80
2023-04-19T14:10:25.101Z,16.62
2023-04-19T14:12:53.137Z,16.82
2023-04-19T14:15:21.461Z,16.62
2023-04-19T14:17:48.979Z,16.75
2023-04-19T14:20:17.249Z,16.84
2023-04-19T14:22:44.912Z,16.74
2023-04-19T14:25:15.041Z,16.77
2023-04-19T14:27:42.563Z,16.83
2023-04-19T14:30:10.326Z,16.70
2023-04-19T14:32:38.267Z,16.59
2023-04-19T14:35:06.385Z,16.71
2023-04-19T14:37:33.825Z,17.03
2023-04-19T14:40:01.371Z,16.81
2023-04-19T14:42:28.830Z,17.11
2023-04-19T14:44:56.290Z,16.62
2023-04-19T14:47:23.728Z,16.76
2023-04-19T14:49:51.253Z,16.64
2023-04-19T14:52:18.851Z,17.12
2023-04-19T14:54:46.319Z,16.56
2023-04-19T14:57:14.108Z,16.52
2023-04-19T14:59:41.766Z,16.94
2023-04-19T15:02:10.575Z,16.81
2023-04-19T15:04:40.731Z,16.91
2023-04-19T15:07:08.977Z,16.81
2023-04-19T15:09:36.462Z,16.46
2023-04-19T15:12:04.015Z,16.63
2023-04-19T15:14:31.464Z,16.51
2023-04-19T15:16:58.828Z,16.17
2023-04-19T15:19:26.449Z,16.63
2023-04-19T15:21:53.822Z,16.78
2023-04-19T15:24:21.239Z,16.62
2023-04-19T15:26:48.665Z,16.39
2023-04-19T15:29:16.343Z,16.29
2023-04-19T15:31:44.057Z,16.12
2023-04-19T15:34:11.425Z,16.25
2023-04-19T15:36:40.378Z,16.32
2023-04-19T15:39:07.775Z,16.31
2023-04-19T15:41:35.199Z,16.15
2023-04-19T15:44:02.587Z,16.14
2023-04-19T15:46:30.079Z,16.27
2023-04-19T15:48:58.711Z,16.10
2023-04-19T15:51:26.893Z,16.16
2023-04-19T15:53:54.295Z,15.96
2023-04-19T15:56:21.688Z,15.80
2023-04-19T15:58:49.068Z,15.95
2023-04-19T16:01:18.881Z,16.10
2023-04-19T16:03:46.827Z,16.07
2023-04-19T16:06:14.290Z,16.06
2023-04-19T16:08:41.709Z,16.00
2023-04-19T16:11:09.202Z,15.74
2023-04-19T16:13:36.710Z,16.04
2023-04-19T16:16:04.133Z,16.18
2023-04-19T16:18:31.568Z,15.85
2023-04-19T16:20:59.027Z,16.02
2023-04-19T16:23:26.433Z,15.62
2023-04-19T16:25:55.494Z,15.78
2023-04-19T16:28:24.250Z,15.86
2023-04-19T16:30:51.651Z,15.81
2023-04-19T16:33:19.105Z,15.80
2023-04-19T16:35:46.540Z,15.66
2023-04-19T16:38:13.991Z,15.71
2023-04-19T16:40:41.473Z,15.43
2023-04-19T16:43:08.804Z,15.67
2023-04-19T16:45:36.260Z,15.70
2023-04-19T16:48:03.742Z,15.81
2023-04-19T16:50:31.180Z,15.69
2023-04-19T16:52:58.551Z,15.78
2023-04-19T16:55:26.137Z,15.45
2023-04-19T16:57:55.513Z,15.59
2023-04-19T17:00:25.709Z,15.29
2023-04-19T17:02:56.060Z,15.47
2023-04-19T17:05:23.768Z,15.35
2023-04-19T17:07:51.611Z,15.28
2023-04-19T17:10:19.092Z,15.21
2023-04-19T17:12:46.495Z,15.23
2023-04-19T17:15:13.871Z,15.12
2023-04-19T17:17:42.705Z,15.16
2023-04-19T17:20:10.634Z,15.23
2023-04-19T17:22:38.093Z,14.99
2023-04-19T17:25:05.916Z,15.20
2023-04-19T17:27:33.477Z,14.93
2023-04-19T17:30:00.926Z,14.92
2023-04-19T17:32:28.324Z,15.02
2023-04-19T17:34:55.711Z,15.04
2023-04-19T17:37:23.238Z,15.19
2023-04-19T17:39:50.676Z,15.12
2023-04-19T17:42:18.110Z,14.98
2023-04-19T17:44:45.525Z,14.63
2023-04-19T17:47:13.070Z,14.96
2023-04-19T17:49:40.466Z,14.76
2023-04-19T17:52:07.906Z,14.88
2023-04-19T17:54:35.289Z,14.83
2023-04-19T17:57:02.821Z,14.62
2023-04-19T17:59:30.298Z,14.77
2023-04-19T18:01:57.915Z,14.66
2023-04-19T18:04:25.442Z,14.58
2023-04-19T18:06:53.010Z,14.62
2023-04-19T18:09:21.265Z,14.73
2023-04-19T18:11:48.691Z,14.41
2023-04-19T18:14:16.276Z,14.32
2023-04-19T18:16:43.724Z,14.25
2023-04-19T18:19:11.188Z,14.52
2023-04-19T18:21:38.624Z,14.16
2023-04-19T18:24:06.255Z,14.27
2023-04-19T18:26:43.454Z,14.45
2023-04-19T18:29:12.220Z,14.18
2023-04-19T18:31:39.699Z,14.11
2023-04-19T18:34:07.095Z,13.98
2023-04-19T18:36:34.516Z,13.89
2023-04-19T18:39:01.928Z,13.98
2023-04-19T18:41:29.312Z,14.01
2023-04-19T18:46:27.088Z,13.87
2023-04-19T18:48:54.603Z,13.61
2023-04-19T18:51:22.030Z,13.36
2023-04-19T18:53:51.755Z,13.34
2023-04-19T18:56:19.363Z,13.43
2023-04-19T18:58:48.201Z,13.30
2023-04-19T19:01:15.879Z,13.31
2023-04-19T19:06:14.252Z,13.09
2023-04-19T19:08:41.769Z,12.86
2023-04-19T19:11:29.231Z,12.90
2023-04-19T19:13:56.726Z,12.87
2023-04-19T19:16:25.312Z,12.76
2023-04-19T19:18:53.274Z,12.74
2023-04-19T19:21:20.852Z,12.85
2023-04-19T19:23:48.299Z,12.87
2023-04-19T19:26:15.904Z,12.50
2023-04-19T19:28:43.460Z,12.50
2023-04-19T19:31:11.003Z,12.35
2023-04-19T19:33:39.979Z,12.47
2023-04-19T19:36:08.287Z,12.42
2023-04-19T19:38:36.122Z,12.34
2023-04-19T19:43:36.492Z,12.11
2023-04-19T19:46:03.939Z,12.18
2023-04-19T19:48:37.137Z,12.05
2023-04-19T19:51:41.735Z,12.07
2023-04-19T19:53:55.089Z,12.07
2023-04-19T19:56:24.485Z,11.94
2023-04-19T19:58:52.440Z,12.04
2023-04-19T20:01:22.534Z,12.11
2023-04-19T20:03:50.887Z,12.10
2023-04-19T20:07:03.340Z,12.06
2023-04-19T20:09:05.934Z,11.97
2023-04-19T20:11:33.359Z,11.91
2023-04-19T20:14:00.787Z,11.97
2023-04-19T20:16:29.095Z,11.98
2023-04-19T20:18:57.713Z,11.72
2023-04-19T20:21:25.084Z,11.98
2023-04-19T20:23:52.579Z,11.63
2023-04-19T20:26:20.032Z,11.70
2023-04-19T20:28:47.407Z,11.86
2023-04-19T20:31:14.792Z,11.86
2023-04-19T20:33:42.127Z,11.81
2023-04-19T20:36:09.659Z,11.62
2023-04-19T20:38:37.233Z,11.61
2023-04-19T20:41:04.646Z,11.73
2023-04-19T20:43:32.475Z,11.71
2023-04-19T20:46:00.097Z,11.68
2023-04-19T20:48:27.593Z,11.64
2023-04-19T20:50:55.006Z,11.59
2023-04-19T20:53:22.635Z,11.34
2023-04-19T20:55:50.141Z,11.51
2023-04-19T20:58:17.604Z,11.61
2023-04-19T21:00:44.997Z,11.40
2023-04-19T21:03:12.584Z,11.45
2023-04-19T21:05:40.143Z,11.51
2023-04-19T21:08:07.548Z,11.36
2023-04-19T21:10:34.922Z,11.51
2023-04-19T21:13:02.524Z,11.43
2023-04-19T21:15:29.883Z,11.68
2023-04-19T21:17:57.359Z,11.35
2023-04-19T21:20:24.731Z,11.39
2023-04-19T21:22:52.067Z,11.48
2023-04-19T21:25:19.496Z,11.33
2023-04-19T21:27:46.899Z,11.16
2023-04-19T21:30:14.544Z,11.20
2023-04-19T21:32:42.083Z,11.41
2023-04-19T21:35:09.818Z,11.45
2023-04-19T21:37:37.508Z,11.18
2023-04-19T21:40:05.156Z,11.17
2023-04-19T21:42:32.571Z,10.98
2023-04-19T21:45:00.030Z,11.09
2023-04-19T21:47:27.560Z,11.17
2023-04-19T21:49:55.035Z,10.63
2023-04-19T21:52:22.599Z,10.72
2023-04-19T21:54:50.037Z,11.02
2023-04-19T21:57:21.842Z,10.96
2023-04-19T21:59:49.265Z,10.93
2023-04-19T22:02:16.804Z,10.80
2023-04-19T22:04:44.770Z,10.85
2023-04-19T22:07:12.531Z,10.67
2023-04-19T22:09:40.281Z,10.59
2023-04-19T22:12:09.300Z,10.58
2023-04-19T22:14:36.686Z,10.56
2023-04-19T22:17:04.548Z,10.70
2023-04-19T22:19:32.028Z,10.65
2023-04-19T22:21:59.392Z,10.59
2023-04-19T22:24:26.809Z,10.57
2023-04-19T22:26:54.193Z,10.73
2023-04-19T22:29:21.653Z,10.49
2023-04-19T22:31:49.137Z,10.36
2023-04-19T22:34:16.553Z,10.43
2023-04-19T22:36:43.936Z,10.32
2023-04-19T22:39:11.482Z,10.37
2023-04-19T22:41:38.850Z,10.26
2023-04-19T22:44:06.313Z,10.07
2023-04-19T22:46:33.945Z,10.12
2023-04-19T22:49:01.985Z,9.95
2023-04-19T22:51:29.364Z,9.86
2023-04-19T22:53:57.868Z,9.73
2023-04-19T22:56:25.272Z,9.77
2023-04-19T22:58:52.635Z,9.73
2023-04-19T23:01:20.045Z,9.83
2023-04-19T23:03:47.519Z,9.81
2023-04-19T23:06:15.039Z,9.64
2023-04-19T23:08:42.464Z,9.66
2023-04-19T23:11:10.682Z,9.72
2023-04-19T23:13:41.289Z,9.79
2023-04-19T23:16:10.847Z,9.95
2023-04-19T23:18:40.251Z,9.80
2023-04-19T23:21:07.769Z,9.63
2023-04-19T23:23:35.292Z,9.66
2023-04-19T23:26:02.747Z,9.61
2023-04-19T23:28:30.242Z,9.77
2023-04-19T23:30:57.778Z,9.55
2023-04-19T23:33:25.446Z,9.57
2023-04-19T23:35:52.842Z,9.59
2023-04-19T23:38:20.817Z,9.37
2023-04-19T23:40:48.283Z,9.58
2023-04-19T23:43:15.728Z,9.51
2023-04-19T23:45:43.103Z,9.38
2023-04-19T23:48:10.516Z,9.39
2023-04-19T23:50:37.949Z,9.31
2023-04-19T23:53:05.641Z,9.24
2023-04-19T23:55:33.082Z,9.36
2023-04-19T23:58:00.651Z,9.33
